Unionville, Ohio
Current Conditions -  °F | °C
As of 8:14 PM on Saturday 20 Dec 2014 (Local Time) from KMRT Reporting Station
Overcast Overcast  
Wind Chill: 29°   Ceiling: 1800
Heat Index: 29°   Visibility: 5mi
Dew Point: 25°   Wind: 0mph
Humidity: 83%   Direction: NA
Pressure: 30.28"   Gusts: NA
Location:  40.14°N, 83.34°W
Report Text: KMRT 210114Z AUTO 00000KT 5SM BKN018 OVC024 M01/M04 A3028 RMK AO2 T10151041
Loading
Personal Weather Stations






























Interactive Weather Map New forecast layout! Learn more

10-Day Weather Forecast

Advertisements
Track Severe Weather on mobile